Time;durP1;ratioP1;P1;durP2;ratioP2;P2;SDS_P1;SDS_P2;PMS_P1;PMS_P2;Temp;Humidity;BMP_temperature;BMP_pressure;BME280_temperature;BME280_humidity;BME280_pressure;Samples;Min_cycle;Max_cycle;Signal;HPM_P1;HPM_P2
2022/07/22 00:01:07;;;;;;;2.08;0.70;;;15.70;99.90;;;;;;5058369;28;20040;-88
2022/07/22 00:03:32;;;;;;;0.52;0.47;;;15.70;99.90;;;;;;5042771;28;20051;-84
2022/07/22 00:05:58;;;;;;;0.00;0.00;;;15.70;99.90;;;;;;5075374;28;20039;-84
2022/07/22 00:08:24;;;;;;;0.10;0.10;;;15.70;99.90;;;;;;5059205;28;20036;-84
2022/07/22 00:10:49;;;;;;;0.32;0.30;;;15.70;99.90;;;;;;5042412;28;20395;-84
2022/07/22 00:13:15;;;;;;;0.00;0.00;;;15.70;99.90;;;;;;5042508;28;20135;-84
2022/07/22 00:15:41;;;;;;;0.10;0.10;;;15.70;99.90;;;;;;5058868;28;20051;-84
2022/07/22 00:18:07;;;;;;;0.30;0.30;;;15.70;99.90;;;;;;5075430;28;20048;-84
2022/07/22 00:20:32;;;;;;;0.10;0.10;;;15.70;99.90;;;;;;5042401;28;20439;-85
2022/07/22 00:22:58;;;;;;;0.20;0.20;;;15.70;99.90;;;;;;5058659;28;20098;-84
2022/07/22 00:25:24;;;;;;;1.02;0.63;;;15.70;99.90;;;;;;5059046;28;20040;-85
2022/07/22 00:27:50;;;;;;;0.00;0.00;;;15.70;99.90;;;;;;5058340;28;20052;-85
2022/07/22 00:30:16;;;;;;;0.20;0.20;;;15.70;99.90;;;;;;5025810;28;20082;-85
2022/07/22 00:32:41;;;;;;;0.20;0.20;;;15.70;99.90;;;;;;5058868;28;20039;-85
2022/07/22 00:35:10;;;;;;;0.30;0.30;;;15.70;99.90;;;;;;5041179;28;20044;-85
2022/07/22 00:37:36;;;;;;;0.10;0.10;;;15.70;99.90;;;;;;5042376;28;20485;-85
2022/07/22 00:40:02;;;;;;;0.52;0.47;;;15.70;99.90;;;;;;5075189;28;20048;-85
2022/07/22 00:42:28;;;;;;;0.30;0.20;;;15.70;99.90;;;;;;5058535;28;20043;-84
2022/07/22 00:44:54;;;;;;;0.17;0.17;;;15.70;99.90;;;;;;5074952;28;20428;-84
2022/07/22 00:47:20;;;;;;;0.00;0.00;;;15.70;99.90;;;;;;5091912;28;20044;-84
2022/07/22 00:49:45;;;;;;;0.65;0.40;;;15.70;99.90;;;;;;5042133;28;20032;-84
2022/07/22 00:52:12;;;;;;;0.10;0.10;;;15.70;99.90;;;;;;5058553;28;20115;-85
2022/07/22 00:54:38;;;;;;;0.20;0.20;;;15.70;99.90;;;;;;5058705;28;20047;-85
2022/07/22 00:57:04;;;;;;;0.10;0.10;;;15.60;99.90;;;;;;5058506;28;20127;-85
2022/07/22 00:59:32;;;;;;;0.00;0.00;;;15.60;99.90;;;;;;5075193;28;20157;-84
2022/07/22 01:01:58;;;;;;;0.00;0.00;;;15.20;99.90;;;;;;5056943;28;20059;-84
2022/07/22 01:04:24;;;;;;;0.05;0.05;;;15.60;99.90;;;;;;5074975;28;20522;-85
2022/07/22 01:06:50;;;;;;;0.00;0.00;;;15.60;99.90;;;;;;5058399;28;20042;-85
2022/07/22 01:09:15;;;;;;;0.10;0.10;;;15.60;99.90;;;;;;5074949;28;20062;-85
2022/07/22 01:11:41;;;;;;;0.00;0.00;;;15.60;99.90;;;;;;5058430;28;20036;-89
2022/07/22 01:14:07;;;;;;;0.00;0.00;;;15.60;99.90;;;;;;5075244;28;20396;-89
2022/07/22 01:16:33;;;;;;;0.00;0.00;;;15.60;99.90;;;;;;5058761;28;20444;-88
2022/07/22 01:18:59;;;;;;;0.00;0.00;;;15.60;99.90;;;;;;5058308;28;20039;-88
2022/07/22 01:21:24;;;;;;;0.32;0.32;;;15.50;99.90;;;;;;5058362;28;20042;-88
2022/07/22 01:23:50;;;;;;;0.00;0.00;;;15.50;99.90;;;;;;5074893;28;20078;-88
2022/07/22 01:26:17;;;;;;;0.00;0.00;;;15.50;99.90;;;;;;5058309;28;20161;-85
2022/07/22 01:28:43;;;;;;;0.10;0.10;;;15.50;99.90;;;;;;5074737;28;20501;-84
2022/07/22 01:31:08;;;;;;;0.00;0.00;;;15.50;99.90;;;;;;5058332;28;20040;-85
2022/07/22 01:33:34;;;;;;;0.00;0.00;;;15.50;99.90;;;;;;5057699;28;20052;-84
2022/07/22 01:36:00;;;;;;;0.10;0.10;;;15.50;99.90;;;;;;5074679;28;20126;-85
2022/07/22 01:38:26;;;;;;;0.00;0.00;;;15.50;99.90;;;;;;5058290;28;20047;-85
2022/07/22 01:40:52;;;;;;;0.10;0.10;;;15.50;99.90;;;;;;5074634;28;20534;-85
2022/07/22 01:43:20;;;;;;;0.80;0.65;;;15.50;99.90;;;;;;5057991;28;20366;-90
2022/07/22 01:45:48;;;;;;;0.10;0.10;;;15.50;99.90;;;;;;5075988;28;20102;-90
2022/07/22 01:48:16;;;;;;;0.13;0.13;;;15.50;99.90;;;;;;5061951;28;20040;-90
2022/07/22 01:50:43;;;;;;;3.03;2.05;;;15.50;99.90;;;;;;5062320;28;20036;-89
2022/07/22 01:53:09;;;;;;;0.20;0.10;;;15.50;99.90;;;;;;5061802;28;20040;-90
2022/07/22 01:55:35;;;;;;;0.00;0.00;;;15.50;99.90;;;;;;5044151;28;20132;-90
2022/07/22 01:58:01;;;;;;;1.20;1.20;;;15.50;99.90;;;;;;5069940;28;20554;-90
2022/07/22 02:00:27;;;;;;;0.38;0.15;;;15.50;99.90;;;;;;5043920;28;20040;-89
2022/07/22 02:02:53;;;;;;;0.00;0.00;;;15.50;99.90;;;;;;5078183;28;20093;-89
2022/07/22 02:05:19;;;;;;;0.00;0.00;;;15.50;99.90;;;;;;5061645;28;20044;-89
2022/07/22 02:07:44;;;;;;;0.10;0.10;;;15.50;99.90;;;;;;5044818;28;20168;-89
2022/07/22 02:10:10;;;;;;;0.20;0.17;;;15.50;99.90;;;;;;5061673;28;20059;-89
2022/07/22 02:12:36;;;;;;;0.00;0.00;;;15.50;99.90;;;;;;5077946;28;20051;-89
2022/07/22 02:15:02;;;;;;;0.35;0.35;;;15.50;99.90;;;;;;5061305;28;20085;-88
2022/07/22 02:17:27;;;;;;;0.00;0.00;;;15.40;99.90;;;;;;5078320;28;20397;-85
2022/07/22 02:19:53;;;;;;;0.20;0.20;;;15.40;99.90;;;;;;5061058;28;20044;-85
2022/07/22 02:22:19;;;;;;;0.00;0.00;;;15.40;99.90;;;;;;5024214;28;20048;-85
2022/07/22 02:24:44;;;;;;;0.00;0.00;;;15.40;99.90;;;;;;5024498;28;20044;-85
2022/07/22 02:27:11;;;;;;;0.38;0.38;;;15.40;99.90;;;;;;5073811;28;20032;-85
2022/07/22 02:29:36;;;;;;;0.00;0.00;;;15.40;99.90;;;;;;5060808;28;20097;-84
2022/07/22 02:32:03;;;;;;;0.05;0.05;;;15.40;99.90;;;;;;5044182;28;20039;-85
2022/07/22 02:34:28;;;;;;;0.00;0.00;;;15.40;99.90;;;;;;5060919;28;20051;-85
2022/07/22 02:36:54;;;;;;;0.55;0.22;;;15.40;99.90;;;;;;5044064;28;20040;-85
2022/07/22 02:39:20;;;;;;;0.00;0.00;;;15.40;99.90;;;;;;5060662;28;20040;-85
2022/07/22 02:41:46;;;;;;;0.15;0.15;;;15.40;99.90;;;;;;5060549;28;20123;-85
2022/07/22 02:44:11;;;;;;;0.00;0.00;;;15.40;99.90;;;;;;5077478;28;20075;-85
2022/07/22 02:46:37;;;;;;;0.10;0.10;;;15.40;99.90;;;;;;5076925;28;20493;-85
2022/07/22 02:49:04;;;;;;;1.75;0.70;;;15.40;99.90;;;;;;5060706;28;20040;-85
2022/07/22 02:51:30;;;;;;;0.00;0.00;;;15.40;99.90;;;;;;5044359;28;20127;-89
2022/07/22 02:53:55;;;;;;;0.00;0.00;;;15.90;99.90;;;;;;5077485;28;20127;-89
2022/07/22 02:56:21;;;;;;;0.08;0.08;;;15.40;99.90;;;;;;5076791;28;20044;-89
2022/07/22 02:58:47;;;;;;;0.00;0.00;;;15.40;99.90;;;;;;5060466;28;20043;-89
2022/07/22 03:01:13;;;;;;;1.08;0.98;;;15.40;99.90;;;;;;5059220;28;20530;-89
2022/07/22 03:03:39;;;;;;;0.10;0.10;;;15.40;99.90;;;;;;5060923;28;20032;-89
2022/07/22 03:06:05;;;;;;;0.03;0.03;;;15.40;99.90;;;;;;5060578;28;20110;-88
2022/07/22 03:08:30;;;;;;;0.00;0.00;;;15.40;99.90;;;;;;5076869;28;20043;-85
2022/07/22 03:10:56;;;;;;;0.10;0.10;;;15.40;99.90;;;;;;5060032;28;20450;-85
2022/07/22 03:13:22;;;;;;;0.10;0.10;;;15.40;99.90;;;;;;5060222;28;20067;-85
2022/07/22 03:15:47;;;;;;;0.00;0.00;;;15.40;99.90;;;;;;5043496;28;20044;-85
2022/07/22 03:18:13;;;;;;;0.10;0.10;;;15.40;99.90;;;;;;5043508;28;20044;-85
2022/07/22 03:20:39;;;;;;;0.00;0.00;;;15.40;99.90;;;;;;5076452;28;20044;-85
2022/07/22 03:23:05;;;;;;;0.10;0.10;;;15.40;99.90;;;;;;5076801;28;20036;-85
2022/07/22 03:25:32;;;;;;;0.10;0.10;;;15.30;99.90;;;;;;5059703;28;20109;-85
2022/07/22 03:27:58;;;;;;;0.00;0.00;;;15.30;99.90;;;;;;5059661;28;20043;-85
2022/07/22 03:30:24;;;;;;;0.10;0.10;;;15.30;99.90;;;;;;5076358;28;20039;-85
2022/07/22 03:32:50;;;;;;;0.00;0.00;;;15.30;99.90;;;;;;5059970;28;20032;-84
2022/07/22 03:35:16;;;;;;;0.10;0.10;;;15.30;99.90;;;;;;5042911;28;20040;-85
2022/07/22 03:37:42;;;;;;;0.00;0.00;;;15.30;99.90;;;;;;5059458;28;20051;-85
2022/07/22 03:40:09;;;;;;;2.55;0.22;;;15.30;99.90;;;;;;5076200;28;20447;-89
2022/07/22 03:42:34;;;;;;;0.10;0.10;;;15.30;99.90;;;;;;5059783;28;20043;-89
2022/07/22 03:45:00;;;;;;;0.00;0.00;;;15.30;99.90;;;;;;5059544;28;20398;-89
2022/07/22 03:47:26;;;;;;;0.00;0.00;;;15.30;99.90;;;;;;5043234;28;20078;-89
2022/07/22 03:49:52;;;;;;;0.00;0.00;;;15.30;99.90;;;;;;5076287;28;20043;-89
2022/07/22 03:52:18;;;;;;;0.00;0.00;;;15.20;99.90;;;;;;5059826;28;20051;-89
2022/07/22 03:54:44;;;;;;;0.10;0.10;;;15.20;99.90;;;;;;5043002;28;20040;-89
2022/07/22 03:57:10;;;;;;;0.00;0.00;;;15.20;99.90;;;;;;5042819;28;20035;-89
2022/07/22 03:59:36;;;;;;;0.00;0.00;;;15.20;99.90;;;;;;5043021;28;20474;-89
2022/07/22 04:02:02;;;;;;;0.00;0.00;;;15.20;99.90;;;;;;5074625;28;20539;-89
2022/07/22 04:04:28;;;;;;;0.00;0.00;;;15.20;99.90;;;;;;5075981;28;20047;-89
2022/07/22 04:06:54;;;;;;;0.00;0.00;;;15.20;99.90;;;;;;5075763;28;20232;-89
2022/07/22 04:09:20;;;;;;;0.10;0.10;;;15.20;99.90;;;;;;5075807;28;20062;-89
2022/07/22 04:11:46;;;;;;;0.10;0.10;;;15.20;99.90;;;;;;5075705;28;20094;-88
2022/07/22 04:14:12;;;;;;;0.00;0.00;;;15.30;99.90;;;;;;5059589;28;20098;-90
2022/07/22 04:16:38;;;;;;;0.75;0.40;;;15.30;99.90;;;;;;5059307;28;20059;-89
2022/07/22 04:19:04;;;;;;;0.10;0.10;;;15.30;99.90;;;;;;5059427;28;20497;-89
2022/07/22 04:21:30;;;;;;;0.22;0.22;;;15.30;99.90;;;;;;5042498;28;20082;-89
2022/07/22 04:23:55;;;;;;;0.10;0.10;;;15.30;99.90;;;;;;5058708;28;20071;-89
2022/07/22 04:26:21;;;;;;;0.10;0.10;;;15.30;99.90;;;;;;5065970;28;20081;-89
2022/07/22 04:28:48;;;;;;;0.10;0.10;;;15.30;99.90;;;;;;5055895;28;20044;-89
2022/07/22 04:31:13;;;;;;;0.10;0.10;;;15.30;99.90;;;;;;5055316;28;20102;-85
2022/07/22 04:33:39;;;;;;;0.00;0.00;;;15.40;99.90;;;;;;5055283;28;20119;-85
2022/07/22 04:36:05;;;;;;;0.70;0.15;;;15.40;99.90;;;;;;5038781;28;20052;-85
2022/07/22 04:38:31;;;;;;;0.00;0.00;;;15.40;99.90;;;;;;5055305;28;20036;-85
2022/07/22 04:40:57;;;;;;;0.20;0.10;;;15.50;99.90;;;;;;5038584;28;20082;-85
2022/07/22 04:43:23;;;;;;;0.08;0.03;;;15.50;99.90;;;;;;5055239;28;20491;-85
2022/07/22 04:45:51;;;;;;;0.10;0.10;;;15.50;99.90;;;;;;5054762;28;20059;-85
2022/07/22 04:48:18;;;;;;;0.13;0.13;;;15.50;99.90;;;;;;5055691;28;20044;-89
2022/07/22 04:50:44;;;;;;;0.10;0.10;;;15.50;99.90;;;;;;5055467;28;20140;-89
2022/07/22 04:53:09;;;;;;;3.15;1.30;;;15.60;99.90;;;;;;5038805;28;20036;-89
2022/07/22 04:55:35;;;;;;;0.55;0.25;;;15.60;99.90;;;;;;5054959;28;20098;-89
2022/07/22 04:58:01;;;;;;;0.00;0.00;;;15.60;99.90;;;;;;5058583;28;20043;-89
2022/07/22 05:00:27;;;;;;;0.10;0.10;;;15.60;99.90;;;;;;5057289;28;20167;-89
2022/07/22 05:02:53;;;;;;;0.00;0.00;;;15.70;99.90;;;;;;5075414;28;20040;-85
2022/07/22 05:05:18;;;;;;;0.03;0.03;;;15.70;99.90;;;;;;5074774;28;20089;-85
2022/07/22 05:07:44;;;;;;;0.22;0.15;;;15.80;99.90;;;;;;5058659;28;20044;-85
2022/07/22 05:10:10;;;;;;;0.03;0.03;;;15.80;99.90;;;;;;5041757;28;20040;-85
2022/07/22 05:12:36;;;;;;;0.10;0.10;;;15.80;99.90;;;;;;5058523;28;20040;-85
2022/07/22 05:15:02;;;;;;;0.10;0.10;;;15.90;99.90;;;;;;5074862;28;20097;-85
2022/07/22 05:17:28;;;;;;;0.00;0.00;;;15.90;99.90;;;;;;5058238;28;20502;-85
2022/07/22 05:19:54;;;;;;;0.00;0.00;;;16.00;99.90;;;;;;5075219;28;20546;-89
2022/07/22 05:22:19;;;;;;;0.10;0.10;;;16.00;99.90;;;;;;5062033;28;20048;-89
2022/07/22 05:24:47;;;;;;;0.10;0.10;;;16.10;99.90;;;;;;5062104;28;20058;-89
2022/07/22 05:27:13;;;;;;;0.00;0.00;;;16.20;99.90;;;;;;5029281;28;20064;-89
2022/07/22 05:29:39;;;;;;;0.00;0.00;;;16.20;99.90;;;;;;5025564;28;20076;-89
2022/07/22 05:32:05;;;;;;;0.00;0.00;;;16.30;99.90;;;;;;5058997;28;20037;-89
2022/07/22 05:34:31;;;;;;;0.20;0.20;;;16.30;99.90;;;;;;5042135;28;20466;-88
2022/07/22 05:36:56;;;;;;;0.10;0.10;;;16.40;99.90;;;;;;5058834;28;20441;-89
2022/07/22 05:39:22;;;;;;;0.15;0.15;;;16.40;99.90;;;;;;5042352;28;20508;-89
2022/07/22 05:41:48;;;;;;;0.25;0.25;;;16.50;99.90;;;;;;5058492;28;20402;-89
2022/07/22 05:44:14;;;;;;;0.10;0.10;;;16.60;99.90;;;;;;5042147;28;20074;-88
2022/07/22 05:46:42;;;;;;;0.10;0.10;;;16.60;99.90;;;;;;5058602;28;20048;-89
2022/07/22 05:49:08;;;;;;;0.08;0.08;;;16.60;99.90;;;;;;5041734;28;20493;-89
2022/07/22 05:51:34;;;;;;;0.10;0.10;;;16.60;99.90;;;;;;5041847;28;20047;-89
2022/07/22 05:54:02;;;;;;;0.10;0.10;;;16.60;99.90;;;;;;5058608;28;20040;-89
2022/07/22 05:56:28;;;;;;;0.00;0.00;;;16.60;99.90;;;;;;5061978;28;20039;-89
2022/07/22 05:58:55;;;;;;;0.00;0.00;;;16.70;99.90;;;;;;5045116;28;20074;-89
2022/07/22 06:01:22;;;;;;;0.00;0.00;;;16.80;99.90;;;;;;5060321;28;20036;-89
2022/07/22 06:03:47;;;;;;;0.05;0.05;;;16.80;99.90;;;;;;5061260;28;20029;-88
2022/07/22 06:06:13;;;;;;;0.00;0.00;;;16.90;99.90;;;;;;5078050;28;20066;-89
2022/07/22 06:08:39;;;;;;;0.20;0.20;;;17.00;99.90;;;;;;5044906;28;20032;-88
2022/07/22 06:11:05;;;;;;;0.52;0.10;;;16.90;99.90;;;;;;5044809;28;20043;-88
2022/07/22 06:13:32;;;;;;;0.00;0.00;;;17.00;99.90;;;;;;5078091;28;20036;-89
2022/07/22 06:15:58;;;;;;;0.00;0.00;;;16.90;99.90;;;;;;5061528;28;20058;-89
2022/07/22 06:18:24;;;;;;;0.68;0.40;;;16.90;99.90;;;;;;5061565;28;20051;-89
2022/07/22 06:20:49;;;;;;;0.10;0.10;;;16.90;99.90;;;;;;5044913;28;20048;-89
2022/07/22 06:23:15;;;;;;;0.20;0.10;;;16.80;99.90;;;;;;5061282;28;20499;-89
2022/07/22 06:25:42;;;;;;;0.00;0.00;;;16.80;99.90;;;;;;5044455;28;20040;-89
2022/07/22 06:28:10;;;;;;;0.10;0.10;;;16.80;99.90;;;;;;5077943;28;20047;-85
2022/07/22 06:30:36;;;;;;;0.15;0.15;;;16.90;99.90;;;;;;5044593;28;20039;-85
2022/07/22 06:33:02;;;;;;;0.28;0.28;;;16.90;99.90;;;;;;5076447;28;20047;-85
2022/07/22 06:35:28;;;;;;;0.00;0.00;;;17.00;99.90;;;;;;5044391;28;20396;-84
2022/07/22 06:37:54;;;;;;;0.15;0.15;;;17.10;99.90;;;;;;5077358;28;20047;-85
2022/07/22 06:40:20;;;;;;;0.10;0.10;;;17.20;99.90;;;;;;5060893;28;20127;-85
2022/07/22 06:42:45;;;;;;;0.05;0.05;;;17.20;99.90;;;;;;5060624;28;20571;-84
2022/07/22 06:45:12;;;;;;;0.00;0.00;;;17.30;99.90;;;;;;5051917;28;20084;-88
2022/07/22 06:47:38;;;;;;;0.20;0.20;;;17.40;99.90;;;;;;5037330;28;20124;-88
2022/07/22 06:50:05;;;;;;;0.08;0.08;;;17.50;99.90;;;;;;5037338;28;20072;-88
2022/07/22 06:52:31;;;;;;;0.10;0.10;;;17.60;99.90;;;;;;5054122;28;20091;-88
2022/07/22 06:54:57;;;;;;;0.00;0.00;;;17.70;99.90;;;;;;5037438;28;20102;-89
2022/07/22 06:57:23;;;;;;;0.00;0.00;;;17.80;99.90;;;;;;5037256;28;20059;-88
2022/07/22 06:59:49;;;;;;;0.10;0.10;;;17.80;99.90;;;;;;5053893;28;20123;-89
2022/07/22 07:02:16;;;;;;;0.10;0.10;;;17.90;99.90;;;;;;4999721;28;20076;-89
2022/07/22 07:04:41;;;;;;;0.10;0.10;;;18.00;99.90;;;;;;5017249;28;20049;-90
2022/07/22 07:07:08;;;;;;;0.10;0.10;;;18.00;99.90;;;;;;5017317;28;20046;-89
2022/07/22 07:09:34;;;;;;;0.08;0.08;;;18.00;99.90;;;;;;5033813;28;20091;-90
2022/07/22 07:11:59;;;;;;;0.00;0.00;;;18.10;99.90;;;;;;5017670;28;20037;-89
2022/07/22 07:14:25;;;;;;;0.10;0.10;;;18.10;99.90;;;;;;5032619;28;20123;-89
2022/07/22 07:16:51;;;;;;;0.10;0.10;;;18.20;99.90;;;;;;5053683;28;20446;-84
2022/07/22 07:19:17;;;;;;;0.10;0.10;;;18.20;99.90;;;;;;5036753;28;20487;-84
2022/07/22 07:21:42;;;;;;;0.10;0.10;;;18.30;99.90;;;;;;5036417;28;20128;-84
2022/07/22 07:24:08;;;;;;;0.10;0.10;;;18.30;99.90;;;;;;5053457;28;20040;-84
2022/07/22 07:26:34;;;;;;;0.45;0.45;;;18.30;99.90;;;;;;5036629;28;20045;-84
2022/07/22 07:28:59;;;;;;;3.63;0.70;;;18.40;99.90;;;;;;5053063;28;20040;-84
2022/07/22 07:31:25;;;;;;;0.40;0.40;;;18.50;99.90;;;;;;5036330;28;20051;-84
2022/07/22 07:33:51;;;;;;;0.10;0.10;;;18.60;99.90;;;;;;5036573;28;20495;-89
2022/07/22 07:36:17;;;;;;;0.10;0.10;;;18.70;99.90;;;;;;5036697;28;20159;-89
2022/07/22 07:38:43;;;;;;;0.00;0.00;;;18.80;99.90;;;;;;5020536;28;20131;-89
2022/07/22 07:41:08;;;;;;;0.10;0.10;;;18.90;99.90;;;;;;5036686;28;20487;-89
2022/07/22 07:43:34;;;;;;;0.00;0.00;;;18.80;99.90;;;;;;5019714;28;20033;-89
2022/07/22 07:46:00;;;;;;;0.10;0.10;;;18.80;99.90;;;;;;5065290;28;20185;-89
2022/07/22 07:48:27;;;;;;;0.10;0.10;;;18.70;99.90;;;;;;5056823;28;20434;-89
2022/07/22 07:50:53;;;;;;;0.10;0.10;;;18.60;99.90;;;;;;5039344;28;20048;-88
2022/07/22 07:53:18;;;;;;;0.10;0.10;;;18.40;99.90;;;;;;5056390;28;20041;-88
2022/07/22 07:55:44;;;;;;;0.35;0.32;;;18.30;99.90;;;;;;5072266;28;20123;-89
2022/07/22 07:58:10;;;;;;;0.15;0.13;;;18.10;99.90;;;;;;5056046;28;20040;-89
2022/07/22 08:00:38;;;;;;;0.10;0.10;;;17.90;99.90;;;;;;5054559;22;20054;-86
2022/07/22 08:03:05;;;;;;;0.50;0.50;;;17.90;99.90;;;;;;5033132;28;20045;-86
2022/07/22 08:05:30;;;;;;;1.08;0.32;;;17.90;99.90;;;;;;5032417;28;20392;-86
2022/07/22 08:07:56;;;;;;;0.00;0.00;;;17.90;99.90;;;;;;5016333;28;20044;-81
2022/07/22 08:10:22;;;;;;;2.00;0.22;;;17.90;99.90;;;;;;5032455;28;20037;-80
2022/07/22 08:12:49;;;;;;;0.10;0.10;;;18.00;99.90;;;;;;5016056;28;20125;-81
2022/07/22 08:15:15;;;;;;;0.10;0.10;;;18.00;99.90;;;;;;5015997;28;20082;-81
2022/07/22 08:17:41;;;;;;;0.10;0.10;;;18.10;99.90;;;;;;5032162;28;20563;-81
2022/07/22 08:20:08;;;;;;;0.03;0.03;;;18.20;99.90;;;;;;5016048;28;20132;-80
2022/07/22 08:22:34;;;;;;;0.15;0.15;;;18.40;99.90;;;;;;5032129;28;20038;-84
2022/07/22 08:25:01;;;;;;;0.20;0.20;;;18.50;99.90;;;;;;5015857;28;20060;-85
2022/07/22 08:27:27;;;;;;;0.00;0.00;;;18.70;99.90;;;;;;5015492;28;20041;-85
2022/07/22 08:29:52;;;;;;;0.10;0.10;;;18.90;99.90;;;;;;5031722;28;20067;-85
2022/07/22 08:32:18;;;;;;;1.15;1.10;;;19.00;99.90;;;;;;5031794;28;20038;-85
2022/07/22 08:34:44;;;;;;;0.00;0.00;;;19.20;99.90;;;;;;5015232;28;20511;-85
2022/07/22 08:37:10;;;;;;;0.10;0.10;;;19.40;99.90;;;;;;5015517;28;20048;-84
2022/07/22 08:39:36;;;;;;;0.10;0.10;;;19.60;99.90;;;;;;5031632;28;20038;-85
2022/07/22 08:42:02;;;;;;;0.10;0.10;;;19.70;99.90;;;;;;5014938;28;20475;-85
2022/07/22 08:44:32;;;;;;;0.28;0.28;;;19.60;99.90;;;;;;5015235;28;20034;-87
2022/07/22 08:46:58;;;;;;;0.10;0.10;;;19.70;99.90;;;;;;5031263;28;20041;-86
2022/07/22 08:49:24;;;;;;;0.03;0.03;;;19.70;99.90;;;;;;5031976;28;20049;-87
2022/07/22 08:51:50;;;;;;;0.00;0.00;;;19.70;99.90;;;;;;5015667;28;20162;-88
2022/07/22 08:54:16;;;;;;;0.10;0.10;;;19.70;99.90;;;;;;5015529;28;20450;-86
2022/07/22 08:56:45;;;;;;;0.05;0.05;;;19.70;99.90;;;;;;5018898;28;20137;-85
2022/07/22 08:59:11;;;;;;;0.00;0.00;;;19.60;99.90;;;;;;5019505;28;20057;-85
2022/07/22 09:01:36;;;;;;;0.10;0.10;;;19.50;99.90;;;;;;5019463;28;20050;-86
2022/07/22 09:04:03;;;;;;;0.00;0.00;;;19.40;99.90;;;;;;5036082;28;20428;-85
2022/07/22 09:06:33;;;;;;;0.00;0.00;;;19.30;99.90;;;;;;5003052;28;20399;-85
2022/07/22 09:09:01;;;;;;;0.10;0.10;;;19.20;99.90;;;;;;5019885;28;20048;-85
2022/07/22 09:11:29;;;;;;;0.10;0.10;;;19.20;99.90;;;;;;5019165;28;20053;-85
2022/07/22 09:13:57;;;;;;;0.00;0.00;;;19.10;99.90;;;;;;5035656;28;20441;-85
2022/07/22 09:16:42;;;;;;;0.10;0.10;;;19.10;99.90;;;;;;5035571;28;20086;-85
2022/07/22 09:19:08;;;;;;;0.00;0.00;;;19.10;99.90;;;;;;5035951;28;20053;-85
2022/07/22 09:21:36;;;;;;;0.08;0.08;;;19.20;99.90;;;;;;5035271;28;20403;-85
2022/07/22 09:24:04;;;;;;;0.10;0.10;;;19.30;99.90;;;;;;5035374;28;20124;-85
2022/07/22 09:26:35;;;;;;;0.10;0.10;;;19.30;99.90;;;;;;5002744;28;20034;-85
2022/07/22 09:29:01;;;;;;;0.10;0.10;;;19.50;99.90;;;;;;5019282;28;20046;-85
2022/07/22 09:31:36;;;;;;;0.10;0.10;;;19.70;99.90;;;;;;5019279;28;20073;-81
2022/07/22 09:34:04;;;;;;;0.10;0.10;;;19.80;99.90;;;;;;5052104;28;20111;-81
2022/07/22 09:36:30;;;;;;;0.20;0.20;;;19.90;99.90;;;;;;5018787;28;20045;-81
2022/07/22 09:38:57;;;;;;;0.00;0.00;;;20.10;99.90;;;;;;5019114;28;20045;-81
2022/07/22 09:41:23;;;;;;;0.10;0.10;;;20.40;99.90;;;;;;5051654;28;20045;-81
2022/07/22 09:43:52;;;;;;;0.10;0.10;;;20.50;99.90;;;;;;5051810;28;20037;-81
2022/07/22 09:46:35;;;;;;;0.20;0.20;;;20.60;99.90;;;;;;5035024;28;20034;-82
2022/07/22 09:49:01;;;;;;;0.10;0.08;;;20.70;99.90;;;;;;5034974;28;20068;-82
2022/07/22 09:51:27;;;;;;;0.10;0.10;;;20.90;99.90;;;;;;5035194;28;20081;-82
2022/07/22 09:53:53;;;;;;;0.00;0.00;;;21.10;99.90;;;;;;5034858;28;20487;-83
2022/07/22 09:56:19;;;;;;;0.00;0.00;;;21.20;99.90;;;;;;5039961;28;20072;-82
2022/07/22 09:58:45;;;;;;;0.10;0.10;;;21.40;99.90;;;;;;5054587;28;20076;-82
2022/07/22 10:01:11;;;;;;;0.00;0.00;;;21.50;99.90;;;;;;5037999;28;20132;-82
2022/07/22 10:03:40;;;;;;;0.10;0.10;;;21.50;99.90;;;;;;5004198;28;20380;-85
2022/07/22 10:06:06;;;;;;;0.00;0.00;;;21.70;99.90;;;;;;5018038;28;20048;-86
2022/07/22 10:08:33;;;;;;;0.10;0.10;;;22.10;99.90;;;;;;5034633;28;20045;-86
2022/07/22 10:11:05;;;;;;;0.05;0.05;;;22.20;99.90;;;;;;5034525;28;20047;-86
2022/07/22 10:13:32;;;;;;;0.00;0.00;;;22.10;99.90;;;;;;5034410;28;20038;-85
2022/07/22 10:15:59;;;;;;;1.85;0.32;;;22.10;99.90;;;;;;5014697;28;20124;-85
2022/07/22 10:18:28;;;;;;;0.00;0.00;;;22.10;99.90;;;;;;5014838;28;20104;-85
2022/07/22 10:21:30;;;;;;;0.20;0.15;;;22.10;99.90;;;;;;5014532;28;20041;-81
2022/07/22 10:24:18;;;;;;;0.00;0.00;;;22.30;99.90;;;;;;4998529;28;20038;-81
2022/07/22 10:26:53;;;;;;;0.00;0.00;;;22.70;99.90;;;;;;5010302;28;20048;-81
2022/07/22 10:29:48;;;;;;;0.10;0.10;;;22.90;99.90;;;;;;5017649;28;20049;-81
2022/07/22 10:32:17;;;;;;;0.00;0.00;;;23.40;99.90;;;;;;5032570;28;20049;-81
2022/07/22 10:35:03;;;;;;;0.10;0.10;;;23.50;99.90;;;;;;5034485;28;20064;-81
2022/07/22 10:37:37;;;;;;;0.20;0.20;;;23.60;99.90;;;;;;5034050;28;20076;-87
2022/07/22 10:40:25;;;;;;;0.10;0.10;;;24.00;99.90;;;;;;5034196;28;20057;-87
2022/07/22 10:42:57;;;;;;;0.10;0.10;;;23.90;99.90;;;;;;5034065;28;20049;-88
2022/07/22 10:45:24;;;;;;;0.03;0.03;;;23.90;99.50;;;;;;5033977;28;20052;-89
2022/07/22 10:47:57;;;;;;;0.00;0.00;;;23.90;99.20;;;;;;5033958;28;20048;-88
2022/07/22 10:50:35;;;;;;;0.10;0.10;;;23.70;99.90;;;;;;5050416;28;20045;-87
2022/07/22 10:53:02;;;;;;;0.10;0.10;;;23.30;97.90;;;;;;5017501;28;20045;-83
2022/07/22 10:55:28;;;;;;;0.25;0.25;;;23.00;99.90;;;;;;5033763;28;20068;-82
2022/07/22 10:57:54;;;;;;;0.10;0.10;;;22.60;99.90;;;;;;5036394;28;20122;-83
2022/07/22 11:00:20;;;;;;;0.03;0.03;;;22.30;99.90;;;;;;5036886;28;20432;-82
2022/07/22 11:02:46;;;;;;;0.05;0.05;;;21.90;99.90;;;;;;5042847;28;20648;-82
2022/07/22 11:05:12;;;;;;;0.00;0.00;;;21.70;99.90;;;;;;5033870;28;20037;-83
2022/07/22 11:07:46;;;;;;;0.10;0.10;;;21.50;99.90;;;;;;5017209;28;20037;-82
2022/07/22 11:10:17;;;;;;;0.00;0.00;;;21.30;99.90;;;;;;5033650;28;20087;-82
2022/07/22 11:12:43;;;;;;;0.10;0.10;;;21.20;99.90;;;;;;5050057;28;20038;-82
2022/07/22 11:15:10;;;;;;;0.10;0.10;;;21.00;99.90;;;;;;5033244;28;20042;-82
2022/07/22 11:17:37;;;;;;;0.10;0.10;;;20.90;99.90;;;;;;5033038;28;20041;-82
2022/07/22 11:20:05;;;;;;;0.45;0.25;;;20.70;99.90;;;;;;5033146;28;20041;-82
2022/07/22 11:22:32;;;;;;;0.00;0.00;;;20.70;99.90;;;;;;5033156;28;20050;-82
2022/07/22 11:25:01;;;;;;;0.20;0.20;;;20.60;99.90;;;;;;5033427;28;20045;-82
2022/07/22 11:27:27;;;;;;;0.08;0.08;;;20.70;99.90;;;;;;5016656;28;20116;-82
2022/07/22 11:29:56;;;;;;;0.00;0.00;;;20.80;99.90;;;;;;5049715;28;20590;-82
2022/07/22 11:32:24;;;;;;;0.10;0.10;;;20.90;99.90;;;;;;5032986;28;20049;-82
2022/07/22 11:34:49;;;;;;;0.32;0.30;;;20.70;99.90;;;;;;5016650;28;20049;-82
2022/07/22 11:37:18;;;;;;;0.00;0.00;;;20.70;99.90;;;;;;5016422;28;20056;-82
2022/07/22 11:39:44;;;;;;;0.00;0.00;;;20.70;99.90;;;;;;5016468;28;20076;-83
2022/07/22 11:42:10;;;;;;;0.00;0.00;;;20.90;99.90;;;;;;5016315;28;20042;-83
2022/07/22 11:44:37;;;;;;;0.00;0.00;;;21.00;99.90;;;;;;5032883;28;20048;-84
2022/07/22 11:47:05;;;;;;;0.10;0.10;;;21.20;99.90;;;;;;5032794;28;20037;-84
2022/07/22 11:49:35;;;;;;;0.00;0.00;;;21.30;99.90;;;;;;5016561;28;20431;-84
2022/07/22 11:52:08;;;;;;;0.00;0.00;;;21.40;99.90;;;;;;5032932;28;20040;-84
2022/07/22 11:54:34;;;;;;;0.47;0.08;;;21.60;99.90;;;;;;5016262;28;20482;-84
2022/07/22 11:57:02;;;;;;;0.00;0.00;;;21.80;99.90;;;;;;5043898;28;20091;-84
2022/07/22 11:59:27;;;;;;;0.08;0.08;;;22.00;99.40;;;;;;5052902;28;20067;-84
2022/07/22 12:01:53;;;;;;;0.08;0.08;;;22.20;99.90;;;;;;5049424;28;20083;-84
2022/07/22 12:04:23;;;;;;;0.10;0.10;;;22.30;99.90;;;;;;4999760;28;20530;-83
2022/07/22 12:06:50;;;;;;;0.10;0.10;;;22.50;99.90;;;;;;5032395;28;20045;-84
2022/07/22 12:09:28;;;;;;;0.10;0.10;;;22.70;99.00;;;;;;5016021;28;20077;-84
2022/07/22 12:11:57;;;;;;;0.00;0.00;;;22.90;99.30;;;;;;5032673;28;20049;-84
2022/07/22 12:14:33;;;;;;;0.20;0.20;;;23.20;98.80;;;;;;5016113;28;20047;-84
2022/07/22 12:17:00;;;;;;;;;;;23.30;98.60;;;;;;5032739;28;20131;-84
2022/07/22 12:19:31;;;;;;;0.05;0.05;;;23.20;99.20;;;;;;5032637;28;19917;-84
2022/07/22 12:22:20;;;;;;;0.10;0.10;;;22.90;99.50;;;;;;5015575;28;20045;-84
2022/07/22 12:24:57;;;;;;;0.00;0.00;;;22.50;98.70;;;;;;5031612;28;20050;-84
2022/07/22 12:27:23;;;;;;;0.25;0.20;;;22.10;98.90;;;;;;5015728;28;20046;-84
2022/07/22 12:29:49;;;;;;;0.05;0.05;;;21.90;99.60;;;;;;5032127;28;20044;-84
2022/07/22 12:32:27;;;;;;;0.30;0.30;;;21.70;99.90;;;;;;5048621;28;20041;-84
2022/07/22 12:35:01;;;;;;;0.00;0.00;;;21.70;99.30;;;;;;5048873;28;20041;-88
2022/07/22 12:37:30;;;;;;;0.10;0.10;;;21.70;99.90;;;;;;5015553;28;20041;-89
2022/07/22 12:40:14;;;;;;;0.10;0.10;;;21.80;98.90;;;;;;5015600;28;20075;-88
2022/07/22 12:43:05;;;;;;;0.10;0.10;;;21.80;99.90;;;;;;5015299;28;20045;-89
2022/07/22 12:45:33;;;;;;;0.10;0.10;;;21.90;99.40;;;;;;5009802;28;20160;-89
2022/07/22 12:48:03;;;;;;;0.10;0.10;;;21.90;99.60;;;;;;5028716;28;20133;-84